Time;durP1;ratioP1;P1;durP2;ratioP2;P2;SDS_P1;SDS_P2;PMS_P1;PMS_P2;Temp;Humidity;BMP_temperature;BMP_pressure;BME280_temperature;BME280_humidity;BME280_pressure;Samples;Min_cycle;Max_cycle;Signal;HPM_P1;HPM_P2
2022/02/22 00:02:14;;;;;;;10.48;2.20;;;;;;;6.65;100.00;100536.09;5033834;28;20067;-75
2022/02/22 00:04:58;;;;;;;8.18;1.90;;;;;;;6.76;100.00;100532.66;5033780;28;20136;-73
2022/02/22 00:07:42;;;;;;;9.82;2.40;;;;;;;6.78;100.00;100533.41;5033000;28;20176;-75
2022/02/22 00:10:25;;;;;;;7.13;2.22;;;;;;;6.74;100.00;100542.50;5018812;28;20148;-75
2022/02/22 00:13:09;;;;;;;;;;;;;;;6.73;100.00;100540.81;5034048;28;20088;-75
2022/02/22 00:15:55;;;;;;;7.30;2.10;;;;;;;6.75;100.00;100547.72;5033002;28;19963;-76
2022/02/22 00:18:39;;;;;;;4.88;1.70;;;;;;;6.73;100.00;100549.63;5032371;28;20293;-74
2022/02/22 00:21:23;;;;;;;10.73;3.20;;;;;;;6.77;100.00;100559.03;5033516;28;20464;-73
2022/02/22 00:24:07;;;;;;;;;;;;;;;6.75;100.00;100560.97;5034350;28;20060;-75
2022/02/22 00:26:51;;;;;;;8.93;2.10;;;;;;;6.72;100.00;100563.84;5032331;28;20284;-74
2022/02/22 00:29:35;;;;;;;;;;;;;;;6.74;100.00;100577.81;5033644;28;20048;-75
2022/02/22 00:32:19;;;;;;;6.65;2.05;;;;;;;6.72;100.00;100571.78;5033324;28;20233;-76
2022/02/22 00:35:03;;;;;;;;;;;;;;;6.78;100.00;100575.78;5019132;28;20080;-75
2022/02/22 00:37:47;;;;;;;9.02;2.20;;;;;;;6.79;100.00;100586.25;5033233;28;19939;-75
2022/02/22 00:40:31;;;;;;;7.07;2.08;;;;;;;6.78;100.00;100587.22;5032439;28;20052;-75
2022/02/22 00:43:15;;;;;;;7.88;2.05;;;;;;;6.82;100.00;100596.66;5032346;28;20488;-76
2022/02/22 00:45:58;;;;;;;7.72;2.42;;;;;;;6.74;100.00;100595.50;5018130;28;20064;-74
2022/02/22 00:48:43;;;;;;;6.78;2.30;;;;;;;6.77;100.00;100598.78;5033129;28;20047;-75
2022/02/22 00:51:27;;;;;;;11.82;2.30;;;;;;;6.72;100.00;100608.03;5033193;28;20095;-76
2022/02/22 00:54:11;;;;;;;5.60;2.00;;;;;;;6.67;100.00;100608.34;5031989;28;20048;-75
2022/02/22 00:56:56;;;;;;;9.32;2.35;;;;;;;6.69;100.00;100606.44;5031930;28;20056;-76
2022/02/22 00:59:40;;;;;;;9.80;2.75;;;;;;;6.66;100.00;100614.59;5031947;28;20572;-75
2022/02/22 01:02:23;;;;;;;;;;;;;;;6.60;100.00;100627.47;5018483;28;20099;-75
2022/02/22 01:05:08;;;;;;;10.27;2.30;;;;;;;6.56;100.00;100626.84;5032263;28;19931;-75
2022/02/22 01:07:51;;;;;;;7.38;1.90;;;;;;;6.48;100.00;100629.19;5031759;28;20056;-75
2022/02/22 01:10:35;;;;;;;8.88;2.10;;;;;;;6.33;100.00;100645.31;5031775;28;20099;-75
2022/02/22 01:13:21;;;;;;;7.70;1.90;;;;;;;6.33;100.00;100646.16;5032918;28;20053;-75
2022/02/22 01:16:05;;;;;;;8.32;1.88;;;;;;;6.13;100.00;100654.66;5032130;28;20131;-75
2022/02/22 01:18:49;;;;;;;11.90;2.50;;;;;;;6.04;100.00;100644.72;5032522;28;20040;-76
2022/02/22 01:21:33;;;;;;;8.18;2.15;;;;;;;6.06;100.00;100647.25;5031271;28;20091;-75
2022/02/22 01:24:17;;;;;;;15.43;2.08;;;;;;;5.98;100.00;100650.44;5031821;28;20483;-72
2022/02/22 01:27:02;;;;;;;10.43;2.70;;;;;;;5.92;100.00;100658.81;5017854;28;20128;-75
2022/02/22 01:29:46;;;;;;;10.93;2.22;;;;;;;5.81;100.00;100666.63;5017578;28;20047;-75
2022/02/22 01:32:30;;;;;;;8.68;2.38;;;;;;;5.79;100.00;100665.03;5017673;28;20119;-75
2022/02/22 01:35:15;;;;;;;9.27;2.38;;;;;;;5.82;100.00;100676.25;5032554;28;20063;-75
2022/02/22 01:37:59;;;;;;;6.18;1.83;;;;;;;5.95;100.00;100677.09;5032205;28;20048;-74
2022/02/22 01:40:43;;;;;;;6.60;2.10;;;;;;;5.91;100.00;100680.94;5031612;28;20068;-75
2022/02/22 01:43:27;;;;;;;9.40;2.45;;;;;;;5.93;100.00;100678.19;5017649;28;20064;-75
2022/02/22 01:46:11;;;;;;;;;;;;;;;5.86;100.00;100706.00;5018306;28;20091;-75
2022/02/22 01:48:55;;;;;;;4.87;1.80;;;;;;;5.90;100.00;100699.53;5031430;28;19963;-75
2022/02/22 01:51:40;;;;;;;6.10;2.30;;;;;;;5.88;100.00;100697.00;5032304;28;20044;-75
2022/02/22 01:54:25;;;;;;;11.32;2.25;;;;;;;5.81;100.00;100714.25;5017755;28;20099;-76
2022/02/22 01:57:09;;;;;;;6.68;1.98;;;;;;;5.70;100.00;100714.09;5031204;28;20052;-76
2022/02/22 01:59:53;;;;;;;9.75;1.88;;;;;;;5.79;100.00;100724.09;5031491;28;20130;-75
2022/02/22 02:02:37;;;;;;;7.25;2.13;;;;;;;5.74;100.00;100731.44;5031423;28;20068;-76
2022/02/22 02:05:22;;;;;;;13.45;3.08;;;;;;;5.58;100.00;100733.44;5031471;28;20127;-75
2022/02/22 02:08:06;;;;;;;7.57;1.90;;;;;;;5.52;100.00;100733.00;5032297;28;20461;-75
2022/02/22 02:10:50;;;;;;;7.03;2.63;;;;;;;5.55;100.00;100730.97;5031388;28;20457;-75
2022/02/22 02:13:34;;;;;;;9.00;2.72;;;;;;;5.51;100.00;100726.84;5032161;28;20106;-74
2022/02/22 02:16:18;;;;;;;10.45;2.35;;;;;;;5.54;100.00;100733.72;5031042;28;20099;-75
2022/02/22 02:19:03;;;;;;;9.63;1.98;;;;;;;5.48;100.00;100735.00;5031145;28;20122;-74
2022/02/22 02:21:48;;;;;;;6.20;2.15;;;;;;;5.47;100.00;100737.72;5031521;28;20084;-75
2022/02/22 02:24:32;;;;;;;12.02;2.33;;;;;;;5.52;100.00;100733.81;5032119;28;20064;-75
2022/02/22 02:27:18;;;;;;;;;;;;;;;5.47;100.00;100743.00;5031623;28;20481;-75
2022/02/22 02:30:07;;;;;;;12.05;2.58;;;;;;;5.48;100.00;100750.00;5031880;28;19920;-75
2022/02/22 02:32:51;;;;;;;9.68;2.13;;;;;;;5.51;100.00;100750.66;5018060;28;20079;-72
2022/02/22 02:35:35;;;;;;;9.70;2.15;;;;;;;5.50;100.00;100751.59;5021029;28;20068;-76
2022/02/22 02:38:19;;;;;;;10.88;2.30;;;;;;;5.48;100.00;100756.13;5034524;28;20053;-75
2022/02/22 02:41:05;;;;;;;10.43;2.17;;;;;;;5.44;100.00;100759.91;5035557;28;20048;-76
2022/02/22 02:43:49;;;;;;;4.82;1.70;;;;;;;5.54;100.00;100761.00;5035775;28;20094;-76
2022/02/22 02:46:33;;;;;;;;;;;;;;;5.50;100.00;100772.75;5034665;28;20080;-73
2022/02/22 02:49:20;;;;;;;6.35;2.65;;;;;;;5.52;100.00;100767.38;5034397;28;19979;-74
2022/02/22 02:52:06;;;;;;;7.05;2.42;;;;;;;5.48;100.00;100772.00;5034204;28;20412;-76
2022/02/22 02:54:50;;;;;;;11.18;2.63;;;;;;;5.45;100.00;100772.19;5034088;28;20043;-74
2022/02/22 02:57:36;;;;;;;6.60;2.30;;;;;;;5.42;100.00;100769.75;5034247;28;20130;-75
2022/02/22 03:00:20;;;;;;;8.40;2.33;;;;;;;5.51;100.00;100771.81;5035242;28;20048;-75
2022/02/22 03:03:04;;;;;;;7.93;2.00;;;;;;;5.35;100.00;100778.19;5034231;28;20052;-74
2022/02/22 03:05:47;;;;;;;6.03;2.05;;;;;;;5.29;100.00;100776.78;5033891;28;20056;-77
2022/02/22 03:08:31;;;;;;;8.88;2.28;;;;;;;5.31;100.00;100780.19;5019837;28;20119;-74
2022/02/22 03:11:15;;;;;;;;;;;;;;;5.26;100.00;100792.84;5035494;28;20119;-74
2022/02/22 03:13:59;;;;;;;9.30;2.67;;;;;;;5.33;100.00;100799.41;5035085;28;20359;-76
2022/02/22 03:16:43;;;;;;;10.00;2.53;;;;;;;5.39;100.00;100798.19;5034193;28;20262;-76
2022/02/22 03:19:27;;;;;;;;;;;;;;;5.39;100.00;100812.25;5034187;28;20060;-74
2022/02/22 03:22:11;;;;;;;9.90;3.17;;;;;;;5.37;100.00;100811.53;5034853;28;20418;-76
2022/02/22 03:24:55;;;;;;;7.93;2.42;;;;;;;5.33;100.00;100820.56;5033832;28;20110;-74
2022/02/22 03:27:39;;;;;;;9.55;2.83;;;;;;;5.41;100.00;100828.00;5033669;28;20583;-74
2022/02/22 03:30:23;;;;;;;7.85;2.10;;;;;;;5.43;100.00;100842.84;5025982;23;20052;-73
2022/02/22 03:33:08;;;;;;;;;;;;;;;5.51;100.00;100845.84;5000435;28;20052;-72
2022/02/22 03:35:52;;;;;;;8.13;2.22;;;;;;;5.49;100.00;100852.16;5027524;28;20020;-72
2022/02/22 03:38:36;;;;;;;;;;;;;;;5.50;100.00;100851.22;5015008;28;20137;-72
2022/02/22 03:41:20;;;;;;;8.48;2.85;;;;;;;5.52;100.00;100852.81;5013381;28;19920;-72
2022/02/22 03:44:04;;;;;;;7.45;2.47;;;;;;;5.58;100.00;100855.09;5013173;28;20112;-73
2022/02/22 03:46:48;;;;;;;9.23;2.13;;;;;;;5.58;100.00;100865.66;4999626;28;20421;-72
2022/02/22 03:49:32;;;;;;;8.43;2.67;;;;;;;5.53;100.00;100865.09;5013263;28;20184;-72
2022/02/22 03:52:15;;;;;;;11.00;3.03;;;;;;;5.50;100.00;100869.72;5013268;28;20044;-72
2022/02/22 03:54:59;;;;;;;;;;;;;;;5.53;100.00;100880.97;5013618;28;20084;-72
2022/02/22 03:57:44;;;;;;;6.45;2.80;;;;;;;5.52;100.00;100884.56;5013065;28;19967;-71
2022/02/22 04:00:28;;;;;;;8.82;2.58;;;;;;;5.58;100.00;100880.66;5014133;28;20099;-72
2022/02/22 04:03:12;;;;;;;6.80;2.50;;;;;;;5.53;100.00;100883.63;5013283;28;20131;-71
2022/02/22 04:05:56;;;;;;;4.75;2.50;;;;;;;5.51;100.00;100893.44;5014251;28;20536;-72
2022/02/22 04:08:40;;;;;;;8.02;2.20;;;;;;;5.46;100.00;100892.88;5014008;28;20048;-72
2022/02/22 04:11:24;;;;;;;6.70;2.53;;;;;;;5.46;100.00;100890.22;5013469;28;20123;-72
2022/02/22 04:14:08;;;;;;;5.72;2.20;;;;;;;5.40;100.00;100911.78;5013379;28;20064;-72
2022/02/22 04:16:52;;;;;;;;;;;;;;;5.39;100.00;100923.31;5013540;28;20120;-72
2022/02/22 04:19:36;;;;;;;7.25;2.50;;;;;;;5.44;100.00;100923.84;5013204;28;20012;-70
2022/02/22 04:22:20;;;;;;;8.27;3.22;;;;;;;5.39;100.00;100931.25;5014082;28;20471;-72
2022/02/22 04:25:05;;;;;;;6.28;2.58;;;;;;;5.48;100.00;100930.66;5012757;28;20052;-72
2022/02/22 04:27:49;;;;;;;7.85;3.22;;;;;;;5.46;100.00;100929.88;5012628;28;20453;-72
2022/02/22 04:30:33;;;;;;;9.82;2.47;;;;;;;5.36;100.00;100928.75;5012512;28;20640;-72
2022/02/22 04:33:17;;;;;;;6.88;2.70;;;;;;;5.31;100.00;100941.44;5012869;28;20201;-72
2022/02/22 04:36:01;;;;;;;5.85;2.05;;;;;;;5.31;100.00;100933.50;5013503;28;20048;-70
2022/02/22 04:38:44;;;;;;;;;;;;;;;5.25;100.00;100933.88;5013873;28;20145;-72
2022/02/22 04:41:29;;;;;;;6.70;2.70;;;;;;;5.34;100.00;100938.59;5026688;28;19920;-70
2022/02/22 04:44:13;;;;;;;5.80;2.20;;;;;;;5.34;100.00;100937.75;5012591;28;20084;-71
2022/02/22 04:46:57;;;;;;;9.13;2.88;;;;;;;5.54;100.00;100935.56;5012462;28;20074;-72
2022/02/22 04:49:41;;;;;;;11.48;3.00;;;;;;;5.56;100.00;100932.81;5013176;28;20560;-72
2022/02/22 04:52:25;;;;;;;11.27;2.50;;;;;;;5.53;100.00;100933.03;4998354;28;20049;-72
2022/02/22 04:55:08;;;;;;;;;;;;;;;5.53;100.00;100939.16;5012202;28;20052;-72
2022/02/22 04:57:52;;;;;;;9.27;3.20;;;;;;;5.56;100.00;100949.53;5026034;28;20377;-72
2022/02/22 05:00:36;;;;;;;;;;;;;;;5.64;100.00;100949.91;4998546;28;20045;-72
2022/02/22 05:03:23;;;;;;;6.70;2.50;;;;;;;5.66;100.00;100961.22;5013304;28;19936;-72
2022/02/22 05:06:07;;;;;;;7.43;2.72;;;;;;;5.61;100.00;100963.31;5013515;28;20040;-72
2022/02/22 05:08:51;;;;;;;7.55;2.70;;;;;;;5.66;100.00;100960.41;5013415;28;20076;-72
2022/02/22 05:11:36;;;;;;;7.53;2.95;;;;;;;5.62;100.00;100966.81;5012216;28;20069;-72
2022/02/22 05:14:19;;;;;;;8.25;2.78;;;;;;;5.64;100.00;100973.72;5013197;28;20048;-72
2022/02/22 05:17:04;;;;;;;;;;;;;;;5.63;100.00;100965.88;5012569;28;20080;-72
2022/02/22 05:19:47;;;;;;;10.20;2.58;;;;;;;5.67;100.00;100962.94;5011821;28;20411;-72
2022/02/22 05:22:38;;;;;;;;;;;;;;;5.63;100.00;100977.28;5012614;28;20056;-71
2022/02/22 05:25:23;;;;;;;6.53;2.97;;;;;;;5.53;100.00;100976.16;5025981;28;20036;-73
2022/02/22 05:28:07;;;;;;;;;;;;;;;5.51;100.00;100972.78;5012450;28;20065;-71
2022/02/22 05:30:51;;;;;;;9.60;3.30;;;;;;;5.51;100.00;100982.50;5025586;28;19985;-72
2022/02/22 05:33:35;;;;;;;11.73;3.03;;;;;;;5.38;100.00;100981.56;5011948;28;20100;-72
2022/02/22 05:36:20;;;;;;;;;;;;;;;5.38;100.00;100985.06;5013294;28;20053;-72
2022/02/22 05:39:05;;;;;;;12.27;3.58;;;;;;;5.33;100.00;100981.84;5011720;28;19924;-71
2022/02/22 05:41:48;;;;;;;9.13;3.00;;;;;;;5.28;100.00;100983.06;4997807;28;20044;-72
2022/02/22 05:44:32;;;;;;;10.10;3.40;;;;;;;5.25;100.00;100985.91;5011663;28;20096;-72
2022/02/22 05:47:16;;;;;;;;;;;;;;;5.25;100.00;100984.09;5012291;28;20100;-72
2022/02/22 05:50:00;;;;;;;6.17;2.97;;;;;;;5.31;100.00;100978.44;5025734;28;20380;-72
2022/02/22 05:52:44;;;;;;;9.85;2.83;;;;;;;5.35;100.00;100982.59;5012808;28;20088;-72
2022/02/22 05:55:28;;;;;;;13.60;3.60;;;;;;;5.40;100.00;100982.31;5012781;28;20049;-72
2022/02/22 05:58:12;;;;;;;9.10;3.22;;;;;;;5.43;100.00;100980.34;5011458;28;20053;-72
2022/02/22 06:00:56;;;;;;;10.40;3.22;;;;;;;5.39;100.00;100991.19;5012678;28;20488;-72
2022/02/22 06:03:40;;;;;;;;;;;;;;;5.31;100.00;100996.09;4998118;28;20046;-72
2022/02/22 06:06:24;;;;;;;10.67;3.30;;;;;;;5.30;100.00;100995.25;5013150;28;19919;-71
2022/02/22 06:09:09;;;;;;;10.05;3.88;;;;;;;5.31;100.00;100998.72;5016624;28;20113;-72
2022/02/22 06:11:53;;;;;;;14.07;3.97;;;;;;;5.25;100.00;101007.88;5015416;28;20125;-72
2022/02/22 06:14:37;;;;;;;;;;;;;;;5.23;100.00;101015.06;5016723;28;20096;-72
2022/02/22 06:17:21;;;;;;;8.63;3.50;;;;;;;5.20;100.00;101009.13;5028948;28;20024;-72
2022/02/22 06:20:06;;;;;;;9.52;3.25;;;;;;;5.20;100.00;101020.56;5015006;28;20378;-72
2022/02/22 06:22:50;;;;;;;9.55;3.72;;;;;;;5.10;100.00;101022.03;5016686;28;20131;-72
2022/02/22 06:25:34;;;;;;;12.38;3.72;;;;;;;5.04;100.00;101030.31;5016120;28;20502;-72
2022/02/22 06:28:19;;;;;;;14.52;4.47;;;;;;;5.04;100.00;101035.59;5014889;28;20398;-72
2022/02/22 06:31:03;;;;;;;13.43;3.90;;;;;;;5.04;100.00;101035.59;5014851;28;20426;-72
2022/02/22 06:33:47;;;;;;;8.45;3.65;;;;;;;4.97;100.00;101044.00;5001085;28;20533;-72
2022/02/22 06:36:32;;;;;;;13.07;4.22;;;;;;;4.93;100.00;101045.97;5001049;28;20405;-70
2022/02/22 06:39:15;;;;;;;15.02;4.10;;;;;;;4.85;100.00;101050.00;5015472;28;20045;-72
2022/02/22 06:41:59;;;;;;;;;;;;;;;4.88;100.00;101059.56;5016221;28;20076;-72
2022/02/22 06:44:43;;;;;;;11.25;4.20;;;;;;;4.81;100.00;101058.19;5014720;28;19964;-72
2022/02/22 06:47:27;;;;;;;13.80;4.13;;;;;;;4.77;100.00;101064.59;5015567;28;20552;-72
2022/02/22 06:50:12;;;;;;;18.83;4.65;;;;;;;4.70;100.00;101081.75;5015531;28;20179;-72
2022/02/22 06:52:56;;;;;;;15.93;4.90;;;;;;;4.67;100.00;101087.22;5000847;28;20057;-72
2022/02/22 06:55:40;;;;;;;14.07;3.33;;;;;;;4.72;100.00;101083.38;5015341;28;20100;-72
2022/02/22 06:58:24;;;;;;;13.48;4.25;;;;;;;4.77;100.00;101088.38;5014293;28;20049;-72
2022/02/22 07:01:09;;;;;;;16.05;4.95;;;;;;;4.82;100.00;101097.75;5014187;28;20052;-72
2022/02/22 07:03:52;;;;;;;;;;;;;;;5.02;100.00;101095.63;5015574;28;20073;-72
2022/02/22 07:06:36;;;;;;;11.95;3.90;;;;;;;4.94;100.00;101092.59;5015157;28;19966;-72
2022/02/22 07:09:20;;;;;;;13.93;3.72;;;;;;;4.92;100.00;101103.34;5015228;28;20064;-72
2022/02/22 07:12:04;;;;;;;18.30;3.60;;;;;;;4.93;100.00;101108.53;5014270;28;20072;-72
2022/02/22 07:14:48;;;;;;;10.52;2.97;;;;;;;4.98;100.00;101101.19;5014192;28;20048;-72
2022/02/22 07:17:52;;;;;;;16.95;4.25;;;;;;;5.00;100.00;101108.09;5015122;28;20131;-72
2022/02/22 07:20:36;;;;;;;18.75;3.78;;;;;;;5.09;100.00;101112.84;5013840;28;20042;-72
2022/02/22 07:23:20;;;;;;;;;;;;;;;5.23;100.00;101096.19;5014417;28;20422;-72
2022/02/22 07:26:04;;;;;;;16.17;4.00;;;;;;;5.39;100.00;101115.47;5014985;28;19928;-72
2022/02/22 07:28:48;;;;;;;;;;;;;;;5.52;100.00;101122.56;5015359;28;20069;-72
2022/02/22 07:31:32;;;;;;;13.18;3.05;;;;;;;5.66;100.00;101124.41;5014647;28;19959;-72
2022/02/22 07:34:16;;;;;;;16.73;3.65;;;;;;;5.73;100.00;101126.56;5014790;28;20191;-70
2022/02/22 07:37:00;;;;;;;13.77;3.30;;;;;;;5.88;100.00;101125.69;5013558;28;20544;-72
2022/02/22 07:39:44;;;;;;;7.47;3.65;;;;;;;6.02;100.00;101144.19;5013555;28;20040;-72
2022/02/22 07:42:28;;;;;;;11.88;3.17;;;;;;;6.14;100.00;101138.16;5014539;28;20056;-72
2022/02/22 07:45:13;;;;;;;9.73;2.90;;;;;;;6.30;100.00;101143.34;5013414;28;20065;-72
2022/02/22 07:47:57;;;;;;;8.23;2.70;;;;;;;6.43;100.00;101153.06;5027542;28;20044;-72
2022/02/22 07:50:41;;;;;;;13.65;2.80;;;;;;;6.55;100.00;101154.94;5014518;28;20053;-72
2022/02/22 07:53:25;;;;;;;7.80;2.72;;;;;;;6.58;100.00;101149.41;5013281;28;20489;-72
2022/02/22 07:56:09;;;;;;;;;;;;;;;6.69;100.00;101146.94;5013867;28;20048;-72
2022/02/22 07:58:53;;;;;;;7.68;2.22;;;;;;;6.65;100.00;101164.00;5027395;28;19967;-72
2022/02/22 08:01:37;;;;;;;9.80;3.08;;;;;;;6.65;100.00;101168.47;5014406;28;20085;-71
2022/02/22 08:04:25;;;;;;;14.43;3.00;;;;;;;6.73;100.00;101174.97;5013295;28;20056;-72
2022/02/22 08:07:10;;;;;;;14.25;3.35;;;;;;;6.73;100.00;101184.69;5014457;28;20048;-72
2022/02/22 08:09:53;;;;;;;11.77;3.10;;;;;;;6.74;100.00;101187.25;4998970;28;20115;-72
2022/02/22 08:12:37;;;;;;;11.70;3.17;;;;;;;6.85;100.00;101194.50;5014389;28;20496;-71
2022/02/22 08:15:21;;;;;;;16.08;3.47;;;;;;;6.89;100.00;101207.47;5013043;28;20049;-72
2022/02/22 08:18:05;;;;;;;10.05;3.05;;;;;;;7.00;100.00;101209.44;5013749;28;20080;-71
2022/02/22 08:20:49;;;;;;;12.02;4.10;;;;;;;7.19;100.00;101204.66;5013819;28;20045;-72
2022/02/22 08:23:33;;;;;;;8.07;2.72;;;;;;;7.09;100.00;101209.69;4999278;28;20081;-72
2022/02/22 08:26:18;;;;;;;17.00;3.42;;;;;;;7.29;100.00;101222.50;5013812;28;20053;-72
2022/02/22 08:29:02;;;;;;;14.68;2.88;;;;;;;7.11;100.00;101207.81;5012788;28;20084;-72
2022/02/22 08:31:46;;;;;;;10.07;3.08;;;;;;;7.13;100.00;101205.91;5012812;28;20126;-71
2022/02/22 08:34:30;;;;;;;6.68;2.53;;;;;;;7.22;100.00;101205.28;5012788;28;20466;-72
2022/02/22 08:37:15;;;;;;;11.57;3.47;;;;;;;7.24;100.00;101221.09;5012680;28;20125;-71
2022/02/22 08:40:00;;;;;;;15.35;2.95;;;;;;;7.35;100.00;101215.94;5012321;28;20513;-72
2022/02/22 08:42:44;;;;;;;16.00;3.05;;;;;;;7.32;100.00;101227.63;4998801;28;20064;-72
2022/02/22 08:45:28;;;;;;;;;;;;;;;7.46;100.00;101219.59;5013974;28;20061;-72
2022/02/22 08:48:13;;;;;;;10.70;3.40;;;;;;;7.63;100.00;101220.16;5026341;28;19920;-72
2022/02/22 08:50:57;;;;;;;12.80;3.80;;;;;;;7.76;100.00;101228.97;5012166;28;20051;-72
2022/02/22 08:53:42;;;;;;;9.88;2.50;;;;;;;7.57;100.00;101219.72;5013490;28;20052;-72
2022/02/22 08:56:26;;;;;;;9.73;2.67;;;;;;;7.53;100.00;101226.19;5013395;28;20096;-72
2022/02/22 08:59:11;;;;;;;10.88;2.80;;;;;;;7.56;100.00;101220.69;5013200;28;20133;-72
2022/02/22 09:01:56;;;;;;;12.73;2.90;;;;;;;7.65;100.00;101230.69;5012341;28;20432;-72
2022/02/22 09:04:39;;;;;;;11.13;3.00;;;;;;;7.69;100.00;101216.22;5012317;28;20053;-72
2022/02/22 09:07:23;;;;;;;10.68;2.83;;;;;;;7.94;100.00;101210.97;4998202;28;20422;-72
2022/02/22 09:10:08;;;;;;;;;;;;;;;7.91;100.00;101212.03;5012479;28;20418;-72
2022/02/22 09:12:52;;;;;;;9.85;2.50;;;;;;;8.16;100.00;101209.38;5026138;28;19973;-72
2022/02/22 09:15:37;;;;;;;13.88;3.40;;;;;;;8.06;100.00;101213.63;5012170;28;20524;-72
2022/02/22 09:18:21;;;;;;;14.25;3.53;;;;;;;7.96;100.00;101203.75;5012839;28;20052;-71
2022/02/22 09:21:05;;;;;;;15.40;3.25;;;;;;;7.94;100.00;101200.38;5011847;28;20100;-72
2022/02/22 09:23:48;;;;;;;15.18;3.50;;;;;;;8.05;100.00;101206.63;5013027;28;20078;-72
2022/02/22 09:26:32;;;;;;;10.88;2.90;;;;;;;8.20;100.00;101202.09;5012048;28;20068;-71
2022/02/22 09:29:16;;;;;;;11.32;4.25;;;;;;;8.31;100.00;101200.38;5013039;28;20064;-72
2022/02/22 09:32:00;;;;;;;;;;;;;;;9.18;100.00;101198.47;5013946;28;20057;-72
2022/02/22 09:34:44;;;;;;;14.90;3.83;;;;;;;9.36;100.00;101191.78;5013002;28;19920;-72
2022/02/22 09:37:28;;;;;;;13.82;3.20;;;;;;;9.24;100.00;101206.84;5012722;28;20429;-72
2022/02/22 09:40:13;;;;;;;13.82;3.75;;;;;;;9.14;100.00;101191.66;5012201;28;20410;-69
2022/02/22 09:42:57;;;;;;;13.18;3.40;;;;;;;10.05;100.00;101176.66;5014630;28;20053;-72
2022/02/22 09:45:42;;;;;;;10.65;3.80;;;;;;;10.42;100.00;101170.09;5016737;28;20045;-71
2022/02/22 09:48:26;;;;;;;17.80;3.67;;;;;;;10.62;100.00;101167.56;5015853;28;20041;-70
2022/02/22 09:51:10;;;;;;;13.65;3.38;;;;;;;10.70;100.00;101170.47;5016807;28;20462;-70
2022/02/22 09:53:54;;;;;;;14.68;3.97;;;;;;;10.64;100.00;101165.63;5015534;28;20100;-72
2022/02/22 09:56:41;;;;;;;15.30;4.32;;;;;;;9.83;100.00;101165.06;5015598;28;20048;-69
2022/02/22 09:59:25;;;;;;;11.43;3.58;;;;;;;9.58;100.00;101173.25;5015499;28;20084;-72
2022/02/22 10:02:09;;;;;;;17.92;4.30;;;;;;;9.45;100.00;101180.44;5015638;28;20104;-72
2022/02/22 10:04:53;;;;;;;18.77;4.30;;;;;;;9.74;100.00;101171.94;5016278;28;20053;-69
2022/02/22 10:07:57;;;;;;;17.58;4.63;;;;;;;9.61;100.00;101165.88;5016447;28;20099;-71
2022/02/22 10:10:42;;;;;;;17.42;4.88;;;;;;;9.67;100.00;101170.72;5016071;28;20084;-71
2022/02/22 10:13:26;;;;;;;16.83;4.82;;;;;;;10.07;100.00;101171.19;5015500;28;20049;-72
2022/02/22 10:16:12;;;;;;;17.35;4.82;;;;;;;9.13;100.00;101179.31;5016390;28;20378;-72
2022/02/22 10:18:57;;;;;;;17.60;4.78;;;;;;;8.98;100.00;101186.59;5015247;28;20052;-70
2022/02/22 10:21:42;;;;;;;18.02;5.10;;;;;;;8.83;100.00;101186.88;5015281;28;20070;-72
2022/02/22 10:24:28;;;;;;;25.17;5.07;;;;;;;8.55;100.00;101181.88;5014989;28;20464;-72
2022/02/22 10:27:12;;;;;;;18.20;5.60;;;;;;;8.50;100.00;101183.97;5015121;28;20080;-71
2022/02/22 10:29:57;;;;;;;23.05;5.50;;;;;;;8.70;100.00;101188.72;5015746;28;20048;-72
2022/02/22 10:32:41;;;;;;;17.60;4.97;;;;;;;8.61;100.00;101189.38;5015817;28;20136;-72
2022/02/22 10:35:34;;;;;;;19.67;5.20;;;;;;;8.49;100.00;101198.22;5000861;28;20506;-72
2022/02/22 10:38:23;;;;;;;17.38;5.35;;;;;;;8.32;100.00;101191.47;5014943;28;20049;-72
2022/02/22 10:41:15;;;;;;;19.70;4.95;;;;;;;8.33;100.00;101208.22;5015818;28;20092;-71
2022/02/22 10:43:59;;;;;;;17.88;5.20;;;;;;;8.46;100.00;101195.81;5014608;28;20401;-71
2022/02/22 10:46:45;;;;;;;;;;;;;;;8.36;100.00;101202.72;5015366;28;20136;-71
2022/02/22 10:49:33;;;;;;;17.05;4.65;;;;;;;8.52;100.00;101201.53;5028326;28;19921;-71
2022/02/22 10:52:28;;;;;;;16.92;4.95;;;;;;;8.53;100.00;101199.69;5000766;28;20057;-72
2022/02/22 10:55:11;;;;;;;16.77;4.80;;;;;;;8.73;100.00;101196.47;4999868;28;20091;-72
2022/02/22 10:57:55;;;;;;;19.85;4.80;;;;;;;8.81;100.00;101194.13;5014727;28;20132;-71
2022/02/22 11:00:39;;;;;;;16.70;4.55;;;;;;;8.96;100.00;101208.97;5015332;28;20493;-72
2022/02/22 11:03:23;;;;;;;18.77;5.20;;;;;;;8.92;100.00;101199.50;5014381;28;20075;-72
2022/02/22 11:06:09;;;;;;;18.52;4.35;;;;;;;9.05;100.00;101200.34;5015268;28;20559;-71
2022/02/22 11:08:55;;;;;;;20.40;3.83;;;;;;;8.79;100.00;101174.78;5015380;28;20052;-71
2022/02/22 11:11:57;;;;;;;16.92;4.80;;;;;;;8.83;100.00;101181.56;5014279;28;20117;-71
2022/02/22 11:14:41;;;;;;;19.85;4.63;;;;;;;9.25;100.00;101167.75;5014300;28;20045;-71
2022/02/22 11:17:25;;;;;;;20.52;3.95;;;;;;;9.39;100.00;101162.28;5014250;28;20410;-72
2022/02/22 11:20:26;;;;;;;24.77;4.45;;;;;;;9.46;100.00;101160.84;5015110;28;20409;-72
2022/02/22 11:23:15;;;;;;;20.48;4.47;;;;;;;9.48;100.00;101154.44;5015120;28;20056;-72
2022/02/22 11:26:15;;;;;;;19.55;4.22;;;;;;;9.46;100.00;101134.25;5014087;28;20053;-72
2022/02/22 11:29:00;;;;;;;15.90;3.78;;;;;;;9.26;100.00;101138.38;5013765;28;20072;-71
2022/02/22 11:31:57;;;;;;;22.23;4.53;;;;;;;9.22;100.00;101136.94;5013975;28;20052;-71
2022/02/22 11:34:42;;;;;;;22.60;4.93;;;;;;;9.30;100.00;101131.03;5013923;28;20089;-72
2022/02/22 11:37:29;;;;;;;17.98;4.00;;;;;;;9.54;100.00;101123.84;5013867;28;20108;-72
2022/02/22 11:40:25;;;;;;;20.17;5.30;;;;;;;9.81;100.00;101121.72;5014461;28;20060;-70
2022/02/22 11:43:17;;;;;;;19.95;4.45;;;;;;;9.62;100.00;101135.63;5013663;28;20508;-71
2022/02/22 11:46:11;;;;;;;14.18;4.88;;;;;;;9.25;100.00;101133.16;5013463;28;20104;-70
2022/02/22 11:49:02;;;;;;;17.55;5.00;;;;;;;9.36;100.00;101111.97;4999539;28;20524;-72
2022/02/22 11:51:48;;;;;;;23.33;5.55;;;;;;;9.46;100.00;101113.78;5013342;28;20052;-71
2022/02/22 11:54:32;;;;;;;25.77;6.30;;;;;;;9.76;100.00;101121.22;5013188;28;20048;-72
2022/02/22 11:57:18;;;;;;;22.83;5.07;;;;;;;9.45;100.00;101112.09;5014706;28;20052;-71
2022/02/22 12:00:03;;;;;;;17.73;4.68;;;;;;;9.66;100.00;101122.88;5013091;28;20583;-72
2022/02/22 12:02:47;;;;;;;21.58;4.95;;;;;;;9.46;100.00;101123.59;5014216;28;20045;-72
2022/02/22 12:05:38;;;;;;;18.98;4.97;;;;;;;9.45;100.00;101113.88;5014261;28;20056;-72
2022/02/22 12:08:41;;;;;;;18.40;5.28;;;;;;;9.78;100.00;101114.00;5013303;28;20132;-71
2022/02/22 12:11:25;;;;;;;22.07;5.27;;;;;;;9.87;100.00;101115.94;4999358;28;20505;-72
2022/02/22 12:14:14;;;;;;;19.13;5.45;;;;;;;9.60;100.00;101131.38;4999245;28;20073;-71
2022/02/22 12:16:58;;;;;;;27.08;5.47;;;;;;;9.60;100.00;101123.38;5014285;28;20052;-71
2022/02/22 12:19:42;;;;;;;17.77;4.35;;;;;;;9.80;100.00;101120.03;5012885;28;20385;-72
2022/02/22 12:22:26;;;;;;;18.38;4.70;;;;;;;9.89;100.00;101122.00;5012981;28;20052;-72
2022/02/22 12:25:10;;;;;;;;;;;;;;;9.78;100.00;101114.00;5013098;28;20048;-72
2022/02/22 12:28:02;;;;;;;19.63;4.23;;;;;;;10.07;100.00;101110.75;5012916;28;19925;-72
2022/02/22 12:30:46;;;;;;;18.05;4.35;;;;;;;10.02;100.00;101107.63;5012767;28;20053;-71
2022/02/22 12:33:31;;;;;;;21.33;4.18;;;;;;;10.24;100.00;101103.13;5012564;28;20096;-71
2022/02/22 12:36:18;;;;;;;21.58;5.10;;;;;;;9.86;100.00;101093.78;5012784;28;20048;-72
2022/02/22 12:39:05;;;;;;;12.63;3.83;;;;;;;9.96;100.00;101091.22;5012679;28;20060;-71
2022/02/22 12:41:52;;;;;;;22.25;4.93;;;;;;;9.98;100.00;101078.66;5012551;28;20497;-72
2022/02/22 12:44:38;;;;;;;16.45;4.32;;;;;;;9.94;100.00;101094.03;5012349;28;20065;-71
2022/02/22 12:47:23;;;;;;;19.25;5.35;;;;;;;9.83;100.00;101075.38;5013531;28;20418;-72
2022/02/22 12:50:07;;;;;;;;;;;;;;;9.80;100.00;101074.75;5012878;28;20048;-69
2022/02/22 12:52:54;;;;;;;20.90;4.47;;;;;;;10.02;100.00;101073.00;5026256;28;19920;-72